Alixel 2 — FGAP — position and weather

sailwx.info

Track history (hours):
 
Tides and Currents Weather Stations Pressure Air Temp Water Temp Dewpoint Dewpoint Depression Visibility Wind Speed Wind Dir Waves Ship Positions

Alixel 2

Last reported at 2017-Nov-17 19:49 UTC. Time now 2017-Nov-18 15:55 UTC.
Position N 47°49' W 003°56'.

Length 14 m.

Type: Fishing. MMSI: 227962000.

Date/timePositionNaut miles runAvg speedWind from/ knotsBaromVisibWave heightAir tempDewpointWater temp
2017-Nov-17 19:49N 47°49' W 003°56'11 8.9
2017-Nov-17 18:35N 47°41' W 003°44'2 9.2
2017-Nov-17 18:24N 47°40' W 003°42'4 9.1
2017-Nov-17 17:59N 47°38' W 003°37'2 5.0
2017-Nov-17 17:30N 47°37' W 003°35'1 2.1
2017-Nov-17 17:00N 47°36' W 003°34'0 0.4
2017-Nov-17 16:30N 47°36' W 003°34'1 1.0
2017-Nov-17 16:00N 47°36' W 003°35'0 0.8
2017-Nov-17 15:30N 47°36' W 003°35'1 1.0
2017-Nov-17 15:00N 47°36' W 003°35'2 3.1
2017-Nov-17 14:30N 47°34' W 003°36'0 0.9
2017-Nov-17 14:00N 47°34' W 003°36'1 2.3
2017-Nov-17 13:29N 47°33' W 003°37'2 3.2
2017-Nov-17 13:00N 47°32' W 003°35'2 3.6
2017-Nov-17 12:30N 47°30' W 003°33'1 1.0
2017-Nov-17 12:00N 47°31' W 003°34'1 2.7
2017-Nov-17 11:30N 47°32' W 003°35'1 1.5
2017-Nov-17 11:00N 47°32' W 003°36'1 2.5
2017-Nov-17 10:31N 47°32' W 003°34'0 0.6
2017-Nov-17 10:01N 47°32' W 003°34'1 3.0
2017-Nov-17 09:30N 47°31' W 003°33'0 0.9
2017-Nov-17 09:00N 47°32' W 003°33'1 2.5
2017-Nov-17 08:30N 47°32' W 003°31'1 2.9
2017-Nov-17 08:00N 47°33' W 003°33'2 3.5
2017-Nov-17 07:30N 47°35' W 003°35'2 3.2
2017-Nov-17 07:00N 47°36' W 003°35'1 1.4
2017-Nov-17 06:31N 47°36' W 003°35'2 3.7
2017-Nov-17 06:00N 47°37' W 003°37'1 1.4
2017-Nov-17 05:29N 47°38' W 003°37'0 0.4
2017-Nov-17 04:59N 47°38' W 003°37'0 0.3
2017-Nov-17 04:26N 47°38' W 003°37'2 4.4
2017-Nov-17 04:00N 47°39' W 003°39'4 6.8
2017-Nov-17 03:29N 47°41' W 003°44'3 6.9
2017-Nov-17 02:59N 47°43' W 003°47'7 6.8
2017-Nov-17 01:58N 47°48' W 003°54'2 1.2
2017-Nov-16 23:58N 47°50' W 003°56'17 3.1
2017-Nov-16 18:29N 47°36' W 003°43'2 3.6
2017-Nov-16 17:59N 47°36' W 003°41'3 1.2
2017-Nov-16 15:10N 47°36' W 003°36'1 3.1
2017-Nov-16 15:00N 47°36' W 003°35'1 1.1
2017-Nov-16 14:30N 47°36' W 003°34'1 1.8
2017-Nov-16 14:00N 47°36' W 003°35'1 2.3
2017-Nov-16 13:29N 47°35' W 003°34'1 0.4
2017-Nov-16 11:15N 47°36' W 003°36'1 2.7
2017-Nov-16 10:59N 47°36' W 003°35'2 0.8
2017-Nov-16 08:27N 47°34' W 003°34'2 2.1
2017-Nov-16 07:24N 47°36' W 003°36'1 1.6
2017-Nov-16 07:00N 47°36' W 003°35'0 0.8
2017-Nov-16 06:28N 47°36' W 003°35'1 3.2
2017-Nov-16 06:00N 47°37' W 003°37'1 1.2
2017-Nov-16 05:28N 47°38' W 003°37'2 4.8
2017-Nov-16 05:00N 47°39' W 003°40'6 6.5
2017-Nov-16 04:08N 47°42' W 003°47'4 6.8
2017-Nov-16 03:34N 47°45' W 003°51'3 6.5
2017-Nov-16 03:08N 47°46' W 003°54'2 6.6
2017-Nov-16 02:54N 47°48' W 003°55'3 1.0
2017-Nov-15 23:58N 47°50' W 003°56'4 7.6
2017-Nov-15 23:24N 47°46' W 003°55'4 7.7
2017-Nov-15 22:53N 47°42' W 003°53'5 4.4
2017-Nov-15 21:48N 47°39' W 003°48'2 1.6
2017-Nov-15 20:49N 47°39' W 003°50'1 3.7
2017-Nov-15 20:27N 47°39' W 003°48'2 3.0
2017-Nov-15 19:49N 47°38' W 003°46'1 3.8
2017-Nov-15 19:29N 47°37' W 003°45'2 3.8
2017-Nov-15 18:54N 47°36' W 003°42'1 3.7
2017-Nov-15 18:30N 47°35' W 003°40'1 2.0
2017-Nov-15 17:58N 47°36' W 003°39'1 2.8
2017-Nov-15 17:30N 47°37' W 003°38'2 3.9
2017-Nov-15 17:00N 47°37' W 003°35'1 1.5
2017-Nov-15 16:30N 47°36' W 003°34'1 2.8
2017-Nov-15 16:00N 47°35' W 003°35'1 3.0
2017-Nov-15 15:30N 47°35' W 003°33'2 3.6
2017-Nov-15 15:00N 47°36' W 003°35'0 0.6
2017-Nov-15 14:30N 47°36' W 003°35'1 1.6
2017-Nov-15 13:58N 47°35' W 003°35'1 1.7
2017-Nov-15 13:30N 47°35' W 003°36'2 3.2
2017-Nov-15 12:58N 47°35' W 003°38'1 1.5
2017-Nov-15 12:30N 47°36' W 003°39'2 3.0
2017-Nov-15 12:00N 47°35' W 003°37'1 2.1
2017-Nov-15 11:30N 47°35' W 003°36'2 3.2
2017-Nov-15 11:00N 47°35' W 003°38'2 3.5
2017-Nov-15 10:30N 47°34' W 003°40'1 2.9
2017-Nov-15 10:00N 47°33' W 003°38'1 1.8
2017-Nov-15 09:30N 47°33' W 003°37'0 0.6
2017-Nov-15 09:00N 47°33' W 003°37'2 3.1
2017-Nov-15 08:30N 47°34' W 003°38'2 3.7
2017-Nov-15 08:00N 47°36' W 003°40'2 2.9
2017-Nov-15 07:29N 47°35' W 003°38'2 3.3
2017-Nov-15 07:00N 47°34' W 003°36'1 2.6
2017-Nov-15 06:30N 47°36' W 003°37'2 3.8
2017-Nov-15 05:59N 47°37' W 003°39'0 0.9
2017-Nov-15 05:29N 47°37' W 003°40'0 0.3
2017-Nov-15 04:59N 47°37' W 003°40'1 1.7
2017-Nov-15 04:30N 47°37' W 003°41'4 6.8
2017-Nov-15 03:59N 47°40' W 003°44'3 6.8
2017-Nov-15 03:29N 47°42' W 003°48'4 6.9
2017-Nov-15 02:53N 47°45' W 003°52'6 6.6
2017-Nov-15 01:58N 47°50' W 003°56'3 1.5
2017-Nov-14 23:58N 47°47' W 003°55'12 5.4
2017-Nov-14 21:42N 47°37' W 003°46'1 3.7
2017-Nov-14 21:22N 47°36' W 003°44'1 3.4
2017-Nov-14 20:57N 47°36' W 003°43'2 3.6
2017-Nov-14 20:30N 47°35' W 003°40'2 3.5
2017-Nov-14 20:00N 47°35' W 003°38'1 2.2
2017-Nov-14 19:30N 47°34' W 003°39'1 2.1
2017-Nov-14 19:00N 47°35' W 003°38'1 2.0
2017-Nov-14 18:30N 47°34' W 003°38'1 2.3
2017-Nov-14 17:59N 47°35' W 003°39'2 3.6
2017-Nov-14 17:30N 47°34' W 003°38'1 2.0
2017-Nov-14 17:00N 47°34' W 003°40'2 3.3
2017-Nov-14 16:30N 47°36' W 003°40'1 2.8
2017-Nov-14 16:00N 47°36' W 003°38'2 3.2
2017-Nov-14 15:30N 47°35' W 003°37'2 3.3
2017-Nov-14 15:00N 47°34' W 003°40'2 3.8
2017-Nov-14 14:27N 47°35' W 003°43'1 2.4
2017-Nov-14 14:00N 47°35' W 003°41'2 3.0
2017-Nov-14 13:29N 47°34' W 003°40'0 0.3
2017-Nov-14 13:00N 47°33' W 003°40'2 3.3
2017-Nov-14 12:30N 47°35' W 003°40'1 2.6
2017-Nov-14 12:00N 47°36' W 003°41'2 3.4
2017-Nov-14 11:28N 47°35' W 003°39'1 2.3
2017-Nov-14 11:00N 47°34' W 003°38'2 3.7
2017-Nov-14 10:30N 47°36' W 003°38'1 1.8
2017-Nov-14 10:00N 47°36' W 003°40'1 2.7
2017-Nov-14 09:30N 47°35' W 003°38'1 1.9
2017-Nov-14 09:00N 47°34' W 003°38'2 3.9
2017-Nov-14 08:30N 47°35' W 003°40'2 3.3
2017-Nov-14 08:00N 47°34' W 003°43'1 2.3
2017-Nov-14 07:30N 47°36' W 003°42'1 2.9
2017-Nov-14 07:00N 47°35' W 003°41'1 2.0
2017-Nov-14 06:30N 47°35' W 003°40'2 3.3
2017-Nov-14 06:00N 47°37' W 003°42'0 0.7
2017-Nov-14 05:21N 47°37' W 003°42'1 1.9
2017-Nov-14 04:48N 47°36' W 003°41'0 0.8
2017-Nov-14 04:27N 47°36' W 003°42'0 0.9
2017-Nov-14 04:00N 47°36' W 003°42'3 6.1
2017-Nov-14 03:27N 47°39' W 003°45'3 6.7
2017-Nov-14 02:58N 47°42' W 003°48'7 6.8
2017-Nov-14 01:58N 47°47' W 003°55'  
2017-Nov-10 07:58N 47°51' W 003°56'15 8.2
2017-Nov-10 06:06N 47°38' W 003°43'2 8.1
2017-Nov-10 05:51N 47°37' W 003°41'3 7.7
2017-Nov-10 05:30N 47°35' W 003°38'4 8.1
2017-Nov-10 05:00N 47°32' W 003°35'2 4.4
2017-Nov-10 04:30N 47°30' W 003°33'1 1.6
2017-Nov-10 04:00N 47°30' W 003°31'1 1.1
2017-Nov-10 03:30N 47°30' W 003°32'0 0.6
2017-Nov-10 03:00N 47°30' W 003°33'0 0.5
2017-Nov-10 02:30N 47°30' W 003°32'0 0.1
2017-Nov-10 02:00N 47°30' W 003°32'0 0.6
2017-Nov-10 01:30N 47°30' W 003°32'0 0.3
2017-Nov-10 01:00N 47°30' W 003°33'2 4.8
2017-Nov-10 00:30N 47°32' W 003°35'4 8.7
2017-Nov-10 00:00N 47°35' W 003°39'19 8.8
2017-Nov-09 21:53N 47°50' W 003°55'1 0.3
2017-Nov-09 19:58N 47°50' W 003°56'1 0.0
2017-Nov-08 19:53N 47°52' W 003°56'8 8.3
2017-Nov-08 18:58N 47°44' W 003°55'17 1.9
2017-Nov-08 09:46N 47°28' W 003°45'1 1.9
2017-Nov-08 09:11N 47°29' W 003°44'1 3.4
2017-Nov-08 08:56N 47°29' W 003°43'5 1.5
2017-Nov-08 05:17N 47°30' W 003°51'21 6.2
2017-Nov-08 01:53N 47°51' W 003°56'0 0.2
2017-Nov-07 23:58N 47°50' W 003°56'  
Track history (hours):
 
Tides and Currents Weather Stations Pressure Air Temp Water Temp Dewpoint Dewpoint Depression Visibility Wind Speed Wind Dir Waves Ship Positions

Alixel 2

Last reported at 2017-Nov-17 19:49 UTC. Time now 2017-Nov-18 15:55 UTC.
Position N 47°49' W 003°56'.

Length 14 m.

Type: Fishing. MMSI: 227962000.

Date/timePositionNaut miles runAvg speedWind from/ knotsBaromVisibWave heightAir tempDewpointWater temp
2017-Nov-17 19:49N 47°49' W 003°56'11 8.9
2017-Nov-17 18:35N 47°41' W 003°44'2 9.2
2017-Nov-17 18:24N 47°40' W 003°42'4 9.1
2017-Nov-17 17:59N 47°38' W 003°37'2 5.0
2017-Nov-17 17:30N 47°37' W 003°35'1 2.1
2017-Nov-17 17:00N 47°36' W 003°34'0 0.4
2017-Nov-17 16:30N 47°36' W 003°34'1 1.0
2017-Nov-17 16:00N 47°36' W 003°35'0 0.8
2017-Nov-17 15:30N 47°36' W 003°35'1 1.0
2017-Nov-17 15:00N 47°36' W 003°35'2 3.1
2017-Nov-17 14:30N 47°34' W 003°36'0 0.9
2017-Nov-17 14:00N 47°34' W 003°36'1 2.3
2017-Nov-17 13:29N 47°33' W 003°37'2 3.2
2017-Nov-17 13:00N 47°32' W 003°35'2 3.6
2017-Nov-17 12:30N 47°30' W 003°33'1 1.0
2017-Nov-17 12:00N 47°31' W 003°34'1 2.7
2017-Nov-17 11:30N 47°32' W 003°35'1 1.5
2017-Nov-17 11:00N 47°32' W 003°36'1 2.5
2017-Nov-17 10:31N 47°32' W 003°34'0 0.6
2017-Nov-17 10:01N 47°32' W 003°34'1 3.0
2017-Nov-17 09:30N 47°31' W 003°33'0 0.9
2017-Nov-17 09:00N 47°32' W 003°33'1 2.5
2017-Nov-17 08:30N 47°32' W 003°31'1 2.9
2017-Nov-17 08:00N 47°33' W 003°33'2 3.5
2017-Nov-17 07:30N 47°35' W 003°35'2 3.2
2017-Nov-17 07:00N 47°36' W 003°35'1 1.4
2017-Nov-17 06:31N 47°36' W 003°35'2 3.7
2017-Nov-17 06:00N 47°37' W 003°37'1 1.4
2017-Nov-17 05:29N 47°38' W 003°37'0 0.4
2017-Nov-17 04:59N 47°38' W 003°37'0 0.3
2017-Nov-17 04:26N 47°38' W 003°37'2 4.4
2017-Nov-17 04:00N 47°39' W 003°39'4 6.8
2017-Nov-17 03:29N 47°41' W 003°44'3 6.9
2017-Nov-17 02:59N 47°43' W 003°47'7 6.8
2017-Nov-17 01:58N 47°48' W 003°54'2 1.2
2017-Nov-16 23:58N 47°50' W 003°56'17 3.1
2017-Nov-16 18:29N 47°36' W 003°43'2 3.6
2017-Nov-16 17:59N 47°36' W 003°41'3 1.2
2017-Nov-16 15:10N 47°36' W 003°36'1 3.1
2017-Nov-16 15:00N 47°36' W 003°35'1 1.1
2017-Nov-16 14:30N 47°36' W 003°34'1 1.8
2017-Nov-16 14:00N 47°36' W 003°35'1 2.3
2017-Nov-16 13:29N 47°35' W 003°34'1 0.4
2017-Nov-16 11:15N 47°36' W 003°36'1 2.7
2017-Nov-16 10:59N 47°36' W 003°35'2 0.8
2017-Nov-16 08:27N 47°34' W 003°34'2 2.1
2017-Nov-16 07:24N 47°36' W 003°36'1 1.6
2017-Nov-16 07:00N 47°36' W 003°35'0 0.8
2017-Nov-16 06:28N 47°36' W 003°35'1 3.2
2017-Nov-16 06:00N 47°37' W 003°37'1 1.2
2017-Nov-16 05:28N 47°38' W 003°37'2 4.8
2017-Nov-16 05:00N 47°39' W 003°40'6 6.5
2017-Nov-16 04:08N 47°42' W 003°47'4 6.8
2017-Nov-16 03:34N 47°45' W 003°51'3 6.5
2017-Nov-16 03:08N 47°46' W 003°54'2 6.6
2017-Nov-16 02:54N 47°48' W 003°55'3 1.0
2017-Nov-15 23:58N 47°50' W 003°56'4 7.6
2017-Nov-15 23:24N 47°46' W 003°55'4 7.7
2017-Nov-15 22:53N 47°42' W 003°53'5 4.4
2017-Nov-15 21:48N 47°39' W 003°48'2 1.6
2017-Nov-15 20:49N 47°39' W 003°50'1 3.7
2017-Nov-15 20:27N 47°39' W 003°48'2 3.0
2017-Nov-15 19:49N 47°38' W 003°46'1 3.8
2017-Nov-15 19:29N 47°37' W 003°45'2 3.8
2017-Nov-15 18:54N 47°36' W 003°42'1 3.7
2017-Nov-15 18:30N 47°35' W 003°40'1 2.0
2017-Nov-15 17:58N 47°36' W 003°39'1 2.8
2017-Nov-15 17:30N 47°37' W 003°38'2 3.9
2017-Nov-15 17:00N 47°37' W 003°35'1 1.5
2017-Nov-15 16:30N 47°36' W 003°34'1 2.8
2017-Nov-15 16:00N 47°35' W 003°35'1 3.0
2017-Nov-15 15:30N 47°35' W 003°33'2 3.6
2017-Nov-15 15:00N 47°36' W 003°35'0 0.6
2017-Nov-15 14:30N 47°36' W 003°35'1 1.6
2017-Nov-15 13:58N 47°35' W 003°35'1 1.7
2017-Nov-15 13:30N 47°35' W 003°36'2 3.2
2017-Nov-15 12:58N 47°35' W 003°38'1 1.5
2017-Nov-15 12:30N 47°36' W 003°39'2 3.0
2017-Nov-15 12:00N 47°35' W 003°37'1 2.1
2017-Nov-15 11:30N 47°35' W 003°36'2 3.2
2017-Nov-15 11:00N 47°35' W 003°38'2 3.5
2017-Nov-15 10:30N 47°34' W 003°40'1 2.9
2017-Nov-15 10:00N 47°33' W 003°38'1 1.8
2017-Nov-15 09:30N 47°33' W 003°37'0 0.6
2017-Nov-15 09:00N 47°33' W 003°37'2 3.1
2017-Nov-15 08:30N 47°34' W 003°38'2 3.7
2017-Nov-15 08:00N 47°36' W 003°40'2 2.9
2017-Nov-15 07:29N 47°35' W 003°38'2 3.3
2017-Nov-15 07:00N 47°34' W 003°36'1 2.6
2017-Nov-15 06:30N 47°36' W 003°37'2 3.8
2017-Nov-15 05:59N 47°37' W 003°39'0 0.9
2017-Nov-15 05:29N 47°37' W 003°40'0 0.3
2017-Nov-15 04:59N 47°37' W 003°40'1 1.7
2017-Nov-15 04:30N 47°37' W 003°41'4 6.8
2017-Nov-15 03:59N 47°40' W 003°44'3 6.8
2017-Nov-15 03:29N 47°42' W 003°48'4 6.9
2017-Nov-15 02:53N 47°45' W 003°52'6 6.6
2017-Nov-15 01:58N 47°50' W 003°56'3 1.5
2017-Nov-14 23:58N 47°47' W 003°55'12 5.4
2017-Nov-14 21:42N 47°37' W 003°46'1 3.7
2017-Nov-14 21:22N 47°36' W 003°44'1 3.4
2017-Nov-14 20:57N 47°36' W 003°43'2 3.6
2017-Nov-14 20:30N 47°35' W 003°40'2 3.5
2017-Nov-14 20:00N 47°35' W 003°38'1 2.2
2017-Nov-14 19:30N 47°34' W 003°39'1 2.1
2017-Nov-14 19:00N 47°35' W 003°38'1 2.0
2017-Nov-14 18:30N 47°34' W 003°38'1 2.3
2017-Nov-14 17:59N 47°35' W 003°39'2 3.6
2017-Nov-14 17:30N 47°34' W 003°38'1 2.0
2017-Nov-14 17:00N 47°34' W 003°40'2 3.3
2017-Nov-14 16:30N 47°36' W 003°40'1 2.8
2017-Nov-14 16:00N 47°36' W 003°38'2 3.2
2017-Nov-14 15:30N 47°35' W 003°37'2 3.3
2017-Nov-14 15:00N 47°34' W 003°40'2 3.8
2017-Nov-14 14:27N 47°35' W 003°43'1 2.4
2017-Nov-14 14:00N 47°35' W 003°41'2 3.0
2017-Nov-14 13:29N 47°34' W 003°40'0 0.3
2017-Nov-14 13:00N 47°33' W 003°40'2 3.3
2017-Nov-14 12:30N 47°35' W 003°40'1 2.6
2017-Nov-14 12:00N 47°36' W 003°41'2 3.4
2017-Nov-14 11:28N 47°35' W 003°39'1 2.3
2017-Nov-14 11:00N 47°34' W 003°38'2 3.7
2017-Nov-14 10:30N 47°36' W 003°38'1 1.8
2017-Nov-14 10:00N 47°36' W 003°40'1 2.7
2017-Nov-14 09:30N 47°35' W 003°38'1 1.9
2017-Nov-14 09:00N 47°34' W 003°38'2 3.9
2017-Nov-14 08:30N 47°35' W 003°40'2 3.3
2017-Nov-14 08:00N 47°34' W 003°43'1 2.3
2017-Nov-14 07:30N 47°36' W 003°42'1 2.9
2017-Nov-14 07:00N 47°35' W 003°41'1 2.0
2017-Nov-14 06:30N 47°35' W 003°40'2 3.3
2017-Nov-14 06:00N 47°37' W 003°42'0 0.7
2017-Nov-14 05:21N 47°37' W 003°42'1 1.9
2017-Nov-14 04:48N 47°36' W 003°41'0 0.8
2017-Nov-14 04:27N 47°36' W 003°42'0 0.9
2017-Nov-14 04:00N 47°36' W 003°42'3 6.1
2017-Nov-14 03:27N 47°39' W 003°45'3 6.7
2017-Nov-14 02:58N 47°42' W 003°48'7 6.8
2017-Nov-14 01:58N 47°47' W 003°55'  
2017-Nov-10 07:58N 47°51' W 003°56'15 8.2
2017-Nov-10 06:06N 47°38' W 003°43'2 8.1
2017-Nov-10 05:51N 47°37' W 003°41'3 7.7
2017-Nov-10 05:30N 47°35' W 003°38'4 8.1
2017-Nov-10 05:00N 47°32' W 003°35'2 4.4
2017-Nov-10 04:30N 47°30' W 003°33'1 1.6
2017-Nov-10 04:00N 47°30' W 003°31'1 1.1
2017-Nov-10 03:30N 47°30' W 003°32'0 0.6
2017-Nov-10 03:00N 47°30' W 003°33'0 0.5
2017-Nov-10 02:30N 47°30' W 003°32'0 0.1
2017-Nov-10 02:00N 47°30' W 003°32'0 0.6
2017-Nov-10 01:30N 47°30' W 003°32'0 0.3
2017-Nov-10 01:00N 47°30' W 003°33'2 4.8
2017-Nov-10 00:30N 47°32' W 003°35'4 8.7
2017-Nov-10 00:00N 47°35' W 003°39'19 8.8
2017-Nov-09 21:53N 47°50' W 003°55'1 0.3
2017-Nov-09 19:58N 47°50' W 003°56'1 0.0
2017-Nov-08 19:53N 47°52' W 003°56'8 8.3
2017-Nov-08 18:58N 47°44' W 003°55'17 1.9
2017-Nov-08 09:46N 47°28' W 003°45'1 1.9
2017-Nov-08 09:11N 47°29' W 003°44'1 3.4
2017-Nov-08 08:56N 47°29' W 003°43'5 1.5
2017-Nov-08 05:17N 47°30' W 003°51'21 6.2
2017-Nov-08 01:53N 47°51' W 003°56'0 0.2
2017-Nov-07 23:58N 47°50' W 003°56'  

Dump ship's entire track history